createdAt,value
2022-11-02T00:01:57.270Z,72.80
2022-11-02T00:04:26.549Z,73.00
2022-11-02T00:06:54.425Z,73.30
2022-11-02T00:09:22.309Z,73.90
2022-11-02T00:11:50.192Z,73.90
2022-11-02T00:14:18.081Z,73.80
2022-11-02T00:16:46.008Z,73.90
2022-11-02T00:19:13.905Z,74.00
2022-11-02T00:21:43.291Z,74.50
2022-11-02T00:24:11.195Z,74.30
2022-11-02T00:26:39.153Z,74.20
2022-11-02T00:29:07.039Z,74.20
2022-11-02T00:31:34.927Z,74.30
2022-11-02T00:34:03.028Z,74.60
2022-11-02T00:36:31.340Z,74.60
2022-11-02T00:39:00.551Z,74.40
2022-11-02T00:41:28.416Z,74.30
2022-11-02T00:43:56.497Z,74.40
2022-11-02T00:46:24.394Z,75.30
2022-11-02T00:48:52.303Z,74.80
2022-11-02T00:51:20.472Z,74.50
2022-11-02T00:53:48.359Z,74.10
2022-11-02T00:56:17.667Z,73.50
2022-11-02T00:58:45.629Z,73.00
2022-11-02T01:01:13.624Z,72.80
2022-11-02T01:03:41.669Z,72.70
2022-11-02T01:06:10.805Z,72.90
2022-11-02T01:08:38.710Z,73.10
2022-11-02T01:11:13.541Z,73.80
2022-11-02T01:13:42.805Z,73.80
2022-11-02T01:16:11.229Z,73.60
2022-11-02T01:18:39.123Z,73.80
2022-11-02T01:21:07.479Z,73.90
2022-11-02T01:23:35.703Z,74.40
2022-11-02T01:26:04.563Z,74.40
2022-11-02T01:28:32.457Z,74.20
2022-11-02T01:31:01.766Z,74.20
2022-11-02T01:33:30.091Z,74.30
2022-11-02T01:35:57.961Z,74.70
2022-11-02T01:38:25.901Z,74.70
2022-11-02T01:40:53.787Z,74.40
2022-11-02T01:43:22.961Z,74.00
2022-11-02T01:45:51.521Z,73.40
2022-11-02T01:48:21.036Z,73.20
2022-11-02T01:50:48.956Z,73.10
2022-11-02T01:53:16.831Z,73.20
2022-11-02T01:55:44.786Z,73.40
2022-11-02T01:58:13.253Z,74.00
2022-11-02T02:00:41.479Z,74.10
2022-11-02T02:03:10.316Z,73.90
2022-11-02T02:05:42.123Z,74.00
2022-11-02T02:08:10.276Z,74.20
2022-11-02T02:10:38.335Z,74.60
2022-11-02T02:13:07.296Z,74.50
2022-11-02T02:15:40.128Z,74.30
2022-11-02T02:18:11.343Z,74.30
2022-11-02T02:20:49.273Z,74.30
2022-11-02T02:23:35.075Z,74.90
2022-11-02T02:26:41.611Z,74.60
2022-11-02T02:29:11.232Z,74.30
2022-11-02T02:31:41.300Z,73.60
2022-11-02T02:34:12.323Z,73.20
2022-11-02T02:36:44.212Z,73.00
2022-11-02T02:39:14.231Z,72.90
2022-11-02T02:41:45.884Z,73.10
2022-11-02T02:44:18.125Z,73.50
2022-11-02T02:46:50.961Z,74.00
2022-11-02T02:49:23.518Z,73.80
2022-11-02T02:51:51.451Z,73.90
2022-11-02T02:54:21.503Z,74.00
2022-11-02T02:56:51.932Z,74.10
2022-11-02T02:59:23.097Z,74.40
2022-11-02T03:01:51.270Z,74.30
2022-11-02T03:04:19.304Z,74.30
2022-11-02T03:06:50.705Z,74.30
2022-11-02T03:09:21.018Z,74.30
2022-11-02T03:11:55.368Z,74.80
2022-11-02T03:14:31.213Z,74.50
2022-11-02T03:17:09.778Z,74.10
2022-11-02T03:19:42.676Z,73.60
2022-11-02T03:22:13.060Z,73.20
2022-11-02T03:24:44.216Z,73.10
2022-11-02T03:27:19.551Z,73.20
2022-11-02T03:29:52.731Z,73.40
2022-11-02T03:32:22.061Z,73.80
2022-11-02T03:34:52.238Z,74.10
2022-11-02T03:37:23.164Z,73.90
2022-11-02T03:39:51.944Z,74.00
2022-11-02T03:42:21.373Z,74.10
2022-11-02T03:44:56.359Z,74.40
2022-11-02T03:47:25.949Z,74.50
2022-11-02T03:49:54.016Z,74.40
2022-11-02T03:52:24.016Z,74.40
2022-11-02T03:54:54.844Z,74.30
2022-11-02T03:57:24.895Z,74.80
2022-11-02T03:59:55.897Z,74.80
2022-11-02T04:02:24.001Z,74.50
2022-11-02T04:04:52.334Z,74.10
2022-11-02T04:07:25.628Z,73.50
2022-11-02T04:09:53.782Z,73.20
2022-11-02T04:12:39.497Z,73.00
2022-11-02T04:15:11.265Z,73.10
2022-11-02T04:17:56.686Z,73.40
2022-11-02T04:20:24.653Z,73.70
2022-11-02T04:23:10.081Z,74.10
2022-11-02T04:25:38.140Z,74.10
2022-11-02T04:28:15.603Z,74.10
2022-11-02T04:30:51.687Z,74.20
2022-11-02T04:33:32.968Z,74.60
2022-11-02T04:36:07.497Z,74.60
2022-11-02T04:38:41.174Z,74.50
2022-11-02T04:41:34.646Z,74.50
2022-11-02T04:44:03.998Z,74.60
2022-11-02T04:46:34.213Z,75.00
2022-11-02T04:49:04.299Z,74.80
2022-11-02T04:51:34.216Z,74.30
2022-11-02T04:54:02.228Z,73.90
2022-11-02T04:56:33.119Z,73.40
2022-11-02T04:59:02.148Z,73.20
2022-11-02T05:01:34.613Z,73.30
2022-11-02T05:04:03.947Z,73.50
2022-11-02T05:06:34.133Z,73.80
2022-11-02T05:09:02.065Z,74.20
2022-11-02T05:11:30.270Z,74.20
2022-11-02T05:13:58.901Z,74.10
2022-11-02T05:16:28.171Z,74.20
2022-11-02T05:18:58.332Z,74.40
2022-11-02T05:21:26.934Z,75.40
2022-11-02T05:23:56.458Z,74.60
2022-11-02T05:26:24.892Z,74.50
2022-11-02T05:28:52.933Z,74.50
2022-11-02T05:31:21.841Z,74.60
2022-11-02T05:33:50.690Z,75.00
2022-11-02T05:36:23.381Z,75.00
2022-11-02T05:38:54.144Z,74.70
2022-11-02T05:41:22.387Z,74.30
2022-11-02T05:43:51.678Z,73.80
2022-11-02T05:46:21.508Z,73.40
2022-11-02T05:48:49.393Z,73.30
2022-11-02T05:51:17.278Z,73.40
2022-11-02T05:53:46.748Z,73.70
2022-11-02T05:56:14.642Z,74.00
2022-11-02T05:58:42.614Z,74.20
2022-11-02T06:01:11.281Z,74.10
2022-11-02T06:03:39.288Z,74.20
2022-11-02T06:06:08.177Z,74.40
2022-11-02T06:08:36.515Z,74.50
2022-11-02T06:11:10.174Z,74.80
2022-11-02T06:13:38.134Z,74.60
2022-11-02T06:16:07.870Z,74.60
2022-11-02T06:18:35.765Z,74.70
2022-11-02T06:21:03.738Z,74.80
2022-11-02T06:23:32.328Z,75.20
2022-11-02T06:26:00.646Z,74.90
2022-11-02T06:28:30.793Z,74.50
2022-11-02T06:30:59.126Z,74.00
2022-11-02T06:33:27.150Z,73.50
2022-11-02T06:35:55.435Z,73.40
2022-11-02T06:38:23.418Z,73.40
2022-11-02T06:40:55.103Z,73.60
2022-11-02T06:43:23.378Z,74.00
2022-11-02T06:45:55.112Z,74.30
2022-11-02T06:48:23.104Z,74.30
2022-11-02T06:50:50.995Z,74.30
2022-11-02T06:53:19.300Z,74.40
2022-11-02T06:55:51.964Z,74.40
2022-11-02T06:58:19.866Z,74.90
2022-11-02T07:00:47.820Z,74.80
2022-11-02T07:03:17.157Z,74.60
2022-11-02T07:05:49.130Z,74.70
2022-11-02T07:08:17.016Z,74.80
2022-11-02T07:10:44.942Z,75.20
2022-11-02T07:13:13.090Z,75.20
2022-11-02T07:15:41.019Z,74.80
2022-11-02T07:18:09.439Z,74.30
2022-11-02T07:20:38.713Z,73.80
2022-11-02T07:23:07.171Z,73.50
2022-11-02T07:25:35.221Z,73.40
2022-11-02T07:28:03.274Z,73.60
2022-11-02T07:30:31.736Z,73.70
2022-11-02T07:32:59.657Z,74.10
2022-11-02T07:35:27.667Z,74.40
2022-11-02T07:38:00.429Z,74.30
2022-11-02T07:40:28.514Z,74.30
2022-11-02T07:42:56.560Z,74.40
2022-11-02T07:45:36.205Z,74.60
2022-11-02T07:48:04.199Z,74.90
2022-11-02T07:50:32.076Z,74.80
2022-11-02T07:53:01.534Z,74.70
2022-11-02T07:55:30.574Z,74.70
2022-11-02T07:57:59.690Z,74.80
2022-11-02T08:00:28.402Z,75.30
2022-11-02T08:02:56.525Z,75.20
2022-11-02T08:05:26.006Z,75.00
2022-11-02T08:08:02.372Z,74.40
2022-11-02T08:10:35.357Z,73.90
2022-11-02T08:13:07.004Z,73.60
2022-11-02T08:15:34.903Z,73.50
2022-11-02T08:18:03.940Z,73.50
2022-11-02T08:20:32.354Z,73.80
2022-11-02T08:23:01.575Z,74.10
2022-11-02T08:25:29.475Z,74.40
2022-11-02T08:27:57.963Z,74.30
2022-11-02T08:30:25.967Z,74.40
2022-11-02T08:32:56.843Z,74.60
2022-11-02T08:35:25.071Z,74.60
2022-11-02T08:37:56.134Z,75.10
2022-11-02T08:40:25.545Z,75.60
2022-11-02T08:42:57.473Z,74.80
2022-11-02T08:45:25.376Z,74.80
2022-11-02T08:47:53.303Z,74.90
2022-11-02T08:50:21.188Z,75.30
2022-11-02T08:52:49.063Z,75.20
2022-11-02T08:55:17.071Z,74.90
2022-11-02T08:57:49.276Z,74.30
2022-11-02T09:00:17.689Z,73.90
2022-11-02T09:02:45.706Z,73.70
2022-11-02T09:05:13.628Z,73.70
2022-11-02T09:07:41.506Z,73.90
2022-11-02T09:10:10.219Z,74.10
2022-11-02T09:12:38.260Z,74.50
2022-11-02T09:15:08.736Z,74.70
2022-11-02T09:17:36.631Z,74.60
2022-11-02T09:20:04.838Z,74.60
2022-11-02T09:22:32.703Z,74.70
2022-11-02T09:25:00.970Z,74.90
2022-11-02T09:27:28.854Z,75.20
2022-11-02T09:29:56.745Z,75.00
2022-11-02T09:32:25.986Z,75.00
2022-11-02T09:34:53.899Z,74.90
2022-11-02T09:37:21.802Z,75.10
2022-11-02T09:39:49.700Z,75.40
2022-11-02T09:42:20.578Z,75.20
2022-11-02T09:44:50.488Z,74.90
2022-11-02T09:48:02.936Z,74.40
2022-11-02T09:50:08.296Z,73.80
2022-11-02T09:52:37.413Z,73.60
2022-11-02T09:55:06.317Z,73.70
2022-11-02T09:57:34.555Z,73.80
2022-11-02T10:00:02.482Z,74.10
2022-11-02T10:02:43.221Z,74.60
2022-11-02T10:05:33.343Z,74.60
2022-11-02T10:08:24.858Z,74.60
2022-11-02T10:10:58.415Z,74.60
2022-11-02T10:13:31.294Z,75.00
2022-11-02T10:16:01.417Z,75.30
2022-11-02T10:18:29.966Z,74.90
2022-11-02T10:20:59.969Z,74.90
2022-11-02T10:23:29.962Z,75.00
2022-11-02T10:25:57.852Z,75.00
2022-11-02T10:28:27.309Z,75.60
2022-11-02T10:30:55.578Z,75.30
2022-11-02T10:33:30.940Z,75.00
2022-11-02T10:36:19.160Z,74.50
2022-11-02T10:38:55.728Z,74.10
2022-11-02T10:41:37.115Z,73.80
2022-11-02T10:44:13.332Z,73.90
2022-11-02T10:46:46.923Z,74.00
2022-11-02T10:49:16.856Z,74.30
2022-11-02T10:51:46.091Z,74.70
2022-11-02T10:54:17.712Z,74.60
2022-11-02T10:56:50.257Z,74.70
2022-11-02T10:59:18.904Z,74.80
2022-11-02T11:01:48.033Z,74.90
2022-11-02T11:04:23.086Z,75.40
2022-11-02T11:06:52.342Z,75.10
2022-11-02T11:09:21.476Z,74.80
2022-11-02T11:11:54.589Z,74.60
2022-11-02T11:20:04.445Z,74.70
2022-11-02T11:22:37.183Z,74.60
2022-11-02T11:25:26.811Z,74.60
2022-11-02T11:27:55.766Z,74.80
2022-11-02T11:30:54.027Z,75.20
2022-11-02T11:33:16.152Z,75.10
2022-11-02T11:35:44.033Z,75.00
2022-11-02T11:38:17.152Z,75.00
2022-11-02T11:40:46.270Z,75.00
2022-11-02T11:43:15.450Z,75.30
2022-11-02T11:45:55.081Z,75.40
2022-11-02T11:48:26.841Z,75.90
2022-11-02T11:50:54.731Z,74.70
2022-11-02T11:53:24.840Z,74.20
2022-11-02T11:55:53.425Z,73.90
2022-11-02T11:58:22.203Z,73.90
2022-11-02T12:01:10.555Z,74.10
2022-11-02T12:03:51.257Z,74.30
2022-11-02T12:06:23.862Z,74.60
2022-11-02T12:08:57.980Z,74.90
2022-11-02T12:11:35.837Z,74.70
2022-11-02T12:14:22.263Z,74.70
2022-11-02T12:17:27.052Z,74.80
2022-11-02T12:20:15.202Z,75.20
2022-11-02T12:22:46.654Z,75.20
2022-11-02T12:25:31.009Z,75.20
2022-11-02T12:28:01.044Z,75.30
2022-11-02T12:30:30.129Z,75.40
2022-11-02T12:33:12.449Z,75.60
2022-11-02T12:36:05.951Z,75.50
2022-11-02T12:38:52.449Z,75.10
2022-11-02T12:41:27.977Z,74.60
2022-11-02T12:43:58.463Z,74.10
2022-11-02T12:46:38.341Z,73.90
2022-11-02T12:49:20.205Z,74.00
2022-11-02T12:51:50.224Z,74.10
2022-11-02T12:54:20.048Z,74.30
2022-11-02T12:56:50.078Z,74.80
2022-11-02T12:59:20.827Z,74.70
2022-11-02T13:01:50.998Z,74.70
2022-11-02T13:04:26.027Z,74.80
2022-11-02T13:06:59.354Z,75.00
2022-11-02T13:09:29.501Z,75.30
2022-11-02T13:12:01.868Z,75.30
2022-11-02T13:14:31.188Z,76.00
2022-11-02T13:17:02.417Z,75.30
2022-11-02T13:19:32.788Z,75.30
2022-11-02T13:22:00.659Z,75.60
2022-11-02T13:24:32.031Z,75.30
2022-11-02T13:27:14.172Z,75.20
2022-11-02T13:29:45.191Z,75.30
2022-11-02T13:32:16.642Z,75.40
2022-11-02T13:34:45.173Z,75.50
2022-11-02T13:37:15.860Z,75.60
2022-11-02T13:39:45.897Z,73.60
2022-11-02T13:42:37.785Z,73.30
2022-11-02T13:45:30.440Z,72.60
2022-11-02T13:48:12.018Z,71.70
2022-11-02T13:50:50.760Z,72.40
2022-11-02T13:53:20.906Z,72.70
2022-11-02T13:55:52.185Z,72.80
2022-11-02T13:58:24.888Z,72.90
2022-11-02T14:00:52.820Z,72.50
2022-11-02T14:03:22.820Z,72.80
2022-11-02T14:05:51.881Z,72.90
2022-11-02T14:08:22.512Z,73.00
2022-11-02T14:11:03.955Z,73.10
2022-11-02T14:14:08.353Z,72.60
2022-11-02T14:16:46.026Z,72.40
2022-11-02T14:19:24.335Z,72.30
2022-11-02T14:22:11.924Z,72.60
2022-11-02T14:24:56.309Z,73.10
2022-11-02T14:27:30.506Z,73.60
2022-11-02T14:29:59.083Z,73.50
2022-11-02T14:32:57.562Z,73.50
2022-11-02T14:35:39.883Z,73.70
2022-11-02T14:38:19.027Z,74.20
2022-11-02T14:40:50.795Z,74.30
2022-11-02T14:43:33.979Z,74.20
2022-11-02T14:46:10.535Z,74.30
2022-11-02T14:48:47.067Z,74.50
2022-11-02T14:51:17.668Z,74.80
2022-11-02T14:53:45.571Z,75.00
2022-11-02T14:56:13.476Z,74.80
2022-11-02T14:58:42.365Z,74.40
2022-11-02T15:01:14.170Z,74.00
2022-11-02T15:03:42.448Z,73.80
2022-11-02T15:06:18.996Z,73.70
2022-11-02T15:08:51.343Z,73.80
2022-11-02T15:11:44.613Z,74.30
2022-11-02T15:14:32.188Z,74.50
2022-11-02T15:17:00.208Z,74.80
2022-11-02T15:19:38.617Z,74.70
2022-11-02T15:22:33.755Z,74.60
2022-11-02T15:25:04.297Z,74.80
2022-11-02T15:27:32.437Z,75.30
2022-11-02T15:30:00.491Z,75.30
2022-11-02T15:32:28.669Z,75.10
2022-11-02T15:34:57.083Z,75.10
2022-11-02T15:37:25.897Z,75.20
2022-11-02T15:39:56.104Z,75.30
2022-11-02T15:42:31.574Z,75.80
2022-11-02T15:45:33.701Z,75.60
2022-11-02T15:48:05.342Z,75.20
2022-11-02T15:50:44.257Z,74.50
2022-11-02T15:53:27.792Z,74.20
2022-11-02T15:56:06.046Z,74.00
2022-11-02T15:58:39.268Z,74.00
2022-11-02T16:01:13.841Z,74.20
2022-11-02T16:03:45.500Z,74.50
2022-11-02T16:06:13.372Z,75.00
2022-11-02T16:08:43.920Z,74.80
2022-11-02T16:11:17.195Z,74.80
2022-11-02T16:13:55.961Z,74.90
2022-11-02T16:16:35.851Z,74.90
2022-11-02T16:19:04.183Z,75.40
2022-11-02T16:21:32.099Z,75.40
2022-11-02T16:23:59.964Z,75.20
2022-11-02T16:26:29.676Z,75.10
2022-11-02T16:28:58.981Z,75.20
2022-11-02T16:31:31.086Z,75.50
2022-11-02T16:33:59.781Z,75.70
2022-11-02T16:36:28.534Z,75.30
2022-11-02T16:38:58.918Z,74.90
2022-11-02T16:41:27.671Z,74.30
2022-11-02T16:43:57.378Z,73.90
2022-11-02T16:46:30.297Z,73.70
2022-11-02T16:49:19.553Z,73.90
2022-11-02T16:51:51.620Z,74.00
2022-11-02T16:54:24.977Z,74.40
2022-11-02T16:56:52.895Z,74.80
2022-11-02T16:59:23.742Z,74.60
2022-11-02T17:01:51.855Z,74.70
2022-11-02T17:04:21.344Z,74.80
2022-11-02T17:06:50.199Z,74.90
2022-11-02T17:09:24.690Z,75.30
2022-11-02T17:11:53.042Z,75.20
2022-11-02T17:14:22.475Z,75.00
2022-11-02T17:17:01.129Z,75.10
2022-11-02T17:19:48.058Z,75.20
2022-11-02T17:22:17.717Z,75.50
2022-11-02T17:24:45.614Z,75.40
2022-11-02T17:27:24.743Z,75.00
2022-11-02T17:29:54.712Z,74.50
2022-11-02T17:32:22.680Z,74.00
2022-11-02T17:34:51.420Z,73.90
2022-11-02T17:37:25.981Z,73.90
2022-11-02T17:39:53.903Z,74.10
2022-11-02T17:42:39.248Z,74.30
2022-11-02T17:45:28.381Z,74.80
2022-11-02T17:47:56.736Z,74.70
2022-11-02T17:50:25.200Z,74.70
2022-11-02T17:52:53.260Z,74.80
2022-11-02T17:55:22.264Z,74.90
2022-11-02T17:57:50.352Z,75.30
2022-11-02T18:00:18.829Z,75.10
2022-11-02T18:02:49.131Z,75.00
2022-11-02T18:05:22.711Z,75.00
2022-11-02T18:07:50.709Z,75.00
2022-11-02T18:10:18.958Z,75.20
2022-11-02T18:12:46.935Z,75.40
2022-11-02T18:15:16.415Z,75.10
2022-11-02T18:17:44.348Z,74.80
2022-11-02T18:20:14.297Z,74.30
2022-11-02T18:22:42.231Z,74.20
2022-11-02T18:25:11.368Z,74.60
2022-11-02T18:27:39.387Z,74.40
2022-11-02T18:30:09.866Z,74.20
2022-11-02T18:32:37.942Z,74.20
2022-11-02T18:35:06.654Z,74.30
2022-11-02T18:37:36.096Z,74.80
2022-11-02T18:40:04.159Z,75.00
2022-11-02T18:42:32.057Z,74.70
2022-11-02T18:45:00.296Z,74.20
2022-11-02T18:47:28.210Z,74.00
2022-11-02T18:49:56.105Z,73.90
2022-11-02T18:52:25.993Z,74.50
2022-11-02T18:54:57.489Z,74.30
2022-11-02T18:57:28.121Z,74.20
2022-11-02T18:59:56.240Z,74.30
2022-11-02T19:02:24.232Z,74.40
2022-11-02T19:04:52.203Z,74.80
2022-11-02T19:07:37.517Z,74.90
2022-11-02T19:10:07.384Z,74.70
2022-11-02T19:12:35.302Z,74.80
2022-11-02T19:15:03.234Z,75.60
2022-11-02T19:17:31.160Z,75.20
2022-11-02T19:19:59.100Z,75.30
2022-11-02T19:22:27.103Z,75.00
2022-11-02T19:24:55.015Z,74.90
2022-11-02T19:27:24.908Z,74.70
2022-11-02T19:29:52.982Z,74.50
2022-11-02T19:32:20.946Z,75.30
2022-11-02T19:34:48.844Z,75.30
2022-11-02T19:37:16.799Z,75.00
2022-11-02T19:39:44.702Z,74.50
2022-11-02T19:42:12.753Z,73.80
2022-11-02T19:44:42.906Z,73.60
2022-11-02T19:47:11.000Z,73.50
2022-11-02T19:49:38.923Z,73.40
2022-11-02T19:52:06.819Z,73.70
2022-11-02T19:54:34.694Z,74.20
2022-11-02T19:57:02.573Z,74.40
2022-11-02T19:59:30.482Z,74.20
2022-11-02T20:01:59.793Z,74.30
2022-11-02T20:04:27.828Z,74.30
2022-11-02T20:06:55.798Z,74.60
2022-11-02T20:09:23.754Z,75.10
2022-11-02T20:11:51.693Z,74.80
2022-11-02T20:14:19.551Z,74.50
2022-11-02T20:16:58.273Z,74.20
2022-11-02T20:19:33.686Z,74.00
2022-11-02T20:22:01.581Z,74.30
2022-11-02T20:24:29.442Z,74.40
2022-11-02T20:27:02.653Z,74.30
2022-11-02T20:29:30.569Z,74.20
2022-11-02T20:31:58.474Z,74.30
2022-11-02T20:34:26.377Z,74.40
2022-11-02T20:36:55.660Z,75.00
2022-11-02T20:39:23.568Z,74.80
2022-11-02T20:41:55.797Z,74.70
2022-11-02T20:44:23.938Z,74.70
2022-11-02T20:46:53.329Z,74.80
2022-11-02T20:49:48.267Z,75.20
2022-11-02T20:52:11.858Z,75.20
2022-11-02T20:54:39.765Z,74.70
2022-11-02T20:57:07.656Z,74.40
2022-11-02T20:59:35.616Z,74.10
2022-11-02T21:02:03.567Z,74.00
2022-11-02T21:04:31.649Z,74.40
2022-11-02T21:06:59.534Z,74.30
2022-11-02T21:09:30.429Z,74.10
2022-11-02T21:12:15.938Z,74.20
2022-11-02T21:14:43.816Z,74.30
2022-11-02T21:17:11.741Z,74.80
2022-11-02T21:19:39.645Z,74.70
2022-11-02T21:22:07.510Z,74.60
2022-11-02T21:24:36.838Z,74.80
2022-11-02T21:27:06.642Z,74.80
2022-11-02T21:29:34.702Z,75.30
2022-11-02T21:32:02.576Z,75.10
2022-11-02T21:34:30.467Z,74.70
2022-11-02T21:36:58.426Z,74.10
2022-11-02T21:39:26.325Z,73.80
2022-11-02T21:41:55.618Z,73.70
2022-11-02T21:44:23.496Z,73.70
2022-11-02T21:46:51.417Z,74.00
2022-11-02T21:49:19.552Z,74.10
2022-11-02T21:51:47.474Z,74.70
2022-11-02T21:54:15.384Z,74.50
2022-11-02T21:56:43.335Z,74.50
2022-11-02T21:59:12.788Z,74.60
2022-11-02T22:01:47.080Z,74.80
2022-11-02T22:04:15.920Z,75.10
2022-11-02T22:06:43.813Z,75.00
2022-11-02T22:09:12.358Z,75.00
2022-11-02T22:11:40.265Z,74.90
2022-11-02T22:14:08.180Z,75.00
2022-11-02T22:16:38.184Z,75.40
2022-11-02T22:19:07.247Z,75.30
2022-11-02T22:21:35.856Z,75.00
2022-11-02T22:24:03.882Z,74.50
2022-11-02T22:26:32.423Z,74.00
2022-11-02T22:29:01.006Z,73.70
2022-11-02T22:31:30.120Z,73.50
2022-11-02T22:34:00.998Z,73.60
2022-11-02T22:36:29.533Z,73.80
2022-11-02T22:38:57.130Z,74.10
2022-11-02T22:41:25.808Z,74.40
2022-11-02T22:43:54.271Z,74.40
2022-11-02T22:46:22.581Z,74.30
2022-11-02T22:48:51.471Z,74.50
2022-11-02T22:51:20.926Z,74.50
2022-11-02T22:53:49.029Z,75.00
2022-11-02T22:56:17.646Z,74.90
2022-11-02T22:58:46.075Z,74.80
2022-11-02T23:01:16.306Z,74.80
2022-11-02T23:03:44.411Z,75.00
2022-11-02T23:06:12.522Z,75.20
2022-11-02T23:08:42.761Z,75.30
2022-11-02T23:11:22.959Z,74.90
2022-11-02T23:13:52.708Z,74.50
2022-11-02T23:16:24.411Z,73.80
2022-11-02T23:19:27.266Z,73.70
2022-11-02T23:22:13.960Z,73.60
2022-11-02T23:25:01.583Z,73.80
2022-11-02T23:27:29.585Z,74.00
2022-11-02T23:30:15.152Z,74.50
2022-11-02T23:32:43.058Z,74.40
2022-11-02T23:35:28.605Z,74.50
2022-11-02T23:38:03.672Z,74.50
2022-11-02T23:40:33.096Z,74.70
2022-11-02T23:43:01.098Z,75.20
2022-11-02T23:45:28.969Z,74.90
2022-11-02T23:48:00.778Z,74.60
2022-11-02T23:50:48.324Z,74.40
2022-11-02T23:53:31.032Z,75.20
2022-11-02T23:56:17.738Z,74.80
2022-11-02T23:58:45.775Z,74.80
